createdAt,value
2017-07-28T00:00:58.499Z,15.10
2017-07-28T00:03:27.016Z,15.10
2017-07-28T00:05:55.866Z,15.00
2017-07-28T00:08:24.336Z,15.00
2017-07-28T00:10:53.637Z,14.90
2017-07-28T00:13:22.948Z,14.90
2017-07-28T00:15:52.201Z,14.90
2017-07-28T00:18:23.037Z,15.00
2017-07-28T00:20:51.543Z,14.90
2017-07-28T00:23:21.213Z,14.90
2017-07-28T00:25:49.678Z,14.80
2017-07-28T00:28:18.148Z,14.90
2017-07-28T00:30:46.674Z,14.70
2017-07-28T00:33:15.118Z,14.80
2017-07-28T00:35:43.591Z,14.80
2017-07-28T00:38:13.615Z,14.80
2017-07-28T00:40:42.612Z,14.70
2017-07-28T00:43:11.838Z,14.70
2017-07-28T00:45:40.545Z,14.80
2017-07-28T00:48:09.394Z,14.80
2017-07-28T00:50:38.689Z,14.80
2017-07-28T00:53:08.049Z,14.70
2017-07-28T00:55:36.936Z,14.70
2017-07-28T00:58:05.835Z,14.70
2017-07-28T01:00:35.421Z,14.80
2017-07-28T01:03:04.519Z,14.70
2017-07-28T01:05:32.993Z,14.80
2017-07-28T01:08:01.488Z,14.80
2017-07-28T01:10:31.174Z,14.80
2017-07-28T01:13:00.051Z,14.90
2017-07-28T01:15:29.301Z,15.00
2017-07-28T01:17:57.826Z,15.00
2017-07-28T01:20:26.313Z,15.10
2017-07-28T01:22:55.338Z,15.10
2017-07-28T01:25:24.019Z,15.00
2017-07-28T01:27:52.956Z,14.90
2017-07-28T01:30:22.003Z,14.80
2017-07-28T01:32:50.902Z,14.80
2017-07-28T01:35:19.608Z,14.80
2017-07-28T01:37:48.079Z,14.80
2017-07-28T01:40:17.238Z,14.80
2017-07-28T01:42:45.986Z,14.80
2017-07-28T01:45:15.026Z,14.80
2017-07-28T01:47:44.466Z,14.80
2017-07-28T01:50:13.111Z,14.80
2017-07-28T01:52:41.955Z,14.80
2017-07-28T01:55:10.417Z,15.00
2017-07-28T01:57:39.017Z,15.00
2017-07-28T02:00:07.183Z,15.00
2017-07-28T02:02:36.076Z,15.00
2017-07-28T02:05:05.336Z,15.00
2017-07-28T02:07:33.793Z,15.10
2017-07-28T02:10:04.016Z,15.10
2017-07-28T02:12:33.289Z,15.10
2017-07-28T02:15:03.083Z,15.10
2017-07-28T02:17:32.005Z,15.10
2017-07-28T02:20:01.868Z,15.10
2017-07-28T02:22:31.120Z,15.10
2017-07-28T02:25:00.388Z,15.00
2017-07-28T02:27:29.049Z,15.00
2017-07-28T02:29:58.330Z,14.90
2017-07-28T02:32:27.604Z,14.80
2017-07-28T02:34:56.077Z,14.70
2017-07-28T02:37:24.688Z,14.70
2017-07-28T02:39:53.147Z,14.70
2017-07-28T02:42:22.111Z,14.70
2017-07-28T02:44:50.617Z,14.60
2017-07-28T02:47:19.524Z,14.60
2017-07-28T02:49:47.998Z,14.60
2017-07-28T02:52:16.436Z,14.50
2017-07-28T02:54:45.358Z,14.60
2017-07-28T02:57:13.812Z,14.60
2017-07-28T02:59:42.278Z,14.70
2017-07-28T03:02:10.784Z,14.80
2017-07-28T03:04:39.232Z,14.80
2017-07-28T03:07:08.518Z,14.90
2017-07-28T03:09:37.740Z,14.90
2017-07-28T03:12:06.958Z,14.90
2017-07-28T03:14:35.806Z,14.80
2017-07-28T03:17:04.503Z,14.70
2017-07-28T03:19:33.164Z,14.60
2017-07-28T03:22:01.653Z,14.50
2017-07-28T03:24:30.121Z,14.50
2017-07-28T03:26:58.780Z,14.50
2017-07-28T03:29:27.285Z,14.40
2017-07-28T03:31:55.922Z,14.40
2017-07-28T03:34:24.385Z,14.40
2017-07-28T03:36:53.872Z,14.40
2017-07-28T03:39:22.740Z,14.30
2017-07-28T03:41:51.597Z,14.30
2017-07-28T03:44:20.092Z,14.40
2017-07-28T03:46:48.940Z,14.40
2017-07-28T03:49:17.802Z,14.40
2017-07-28T03:51:46.302Z,14.50
2017-07-28T03:54:15.716Z,14.50
2017-07-28T03:56:44.943Z,14.50
2017-07-28T03:59:13.427Z,14.50
2017-07-28T04:01:42.662Z,14.50
2017-07-28T04:04:11.710Z,14.50
2017-07-28T04:06:40.176Z,14.60
2017-07-28T04:09:09.467Z,14.60
2017-07-28T04:11:37.918Z,14.70
2017-07-28T04:14:06.840Z,14.70
2017-07-28T04:16:36.721Z,14.70
2017-07-28T04:19:05.182Z,14.80
2017-07-28T04:21:34.607Z,14.80
2017-07-28T04:24:03.055Z,14.90
2017-07-28T04:26:32.084Z,14.80
2017-07-28T04:29:00.924Z,14.90
2017-07-28T04:31:29.414Z,14.90
2017-07-28T04:33:57.915Z,14.90
2017-07-28T04:36:27.162Z,15.00
2017-07-28T04:38:55.755Z,15.10
2017-07-28T04:41:25.351Z,15.10
2017-07-28T04:43:54.385Z,15.20
2017-07-28T04:46:23.374Z,15.20
2017-07-28T04:48:52.044Z,15.20
2017-07-28T04:51:20.970Z,15.20
2017-07-28T04:53:49.538Z,15.30
2017-07-28T04:56:18.052Z,15.30
2017-07-28T04:58:46.961Z,15.30
2017-07-28T05:01:15.824Z,15.40
2017-07-28T05:03:45.080Z,15.50
2017-07-28T05:06:13.530Z,15.60
2017-07-28T05:08:41.996Z,15.70
2017-07-28T05:11:10.888Z,15.80
2017-07-28T05:13:39.767Z,16.10
2017-07-28T05:16:08.320Z,16.60
2017-07-28T05:18:36.766Z,17.00
2017-07-28T05:21:05.841Z,17.40
2017-07-28T05:23:34.275Z,17.40
2017-07-28T05:26:02.922Z,17.40
2017-07-28T05:28:32.226Z,17.20
2017-07-28T05:31:01.579Z,16.90
2017-07-28T05:33:30.056Z,16.70
2017-07-28T05:35:59.004Z,16.70
2017-07-28T05:38:28.183Z,16.60
2017-07-28T05:40:57.392Z,16.90
2017-07-28T05:43:25.870Z,17.80
2017-07-28T05:45:54.419Z,18.40
2017-07-28T05:48:22.872Z,18.60
2017-07-28T05:50:51.912Z,18.30
2017-07-28T05:53:20.816Z,18.30
2017-07-28T05:55:49.900Z,18.90
2017-07-28T05:58:18.880Z,19.00
2017-07-28T06:00:47.746Z,19.10
2017-07-28T06:03:16.209Z,19.20
2017-07-28T06:05:45.115Z,19.00
2017-07-28T06:08:13.593Z,18.70
2017-07-28T06:10:42.059Z,18.60
2017-07-28T06:13:10.989Z,18.80
2017-07-28T06:15:39.835Z,19.10
2017-07-28T06:18:08.681Z,19.40
2017-07-28T06:20:37.934Z,19.70
2017-07-28T06:23:06.840Z,19.50
2017-07-28T06:25:35.709Z,19.70
2017-07-28T06:28:05.095Z,19.70
2017-07-28T06:30:34.340Z,19.40
2017-07-28T06:33:02.789Z,19.60
2017-07-28T06:35:31.695Z,19.70
2017-07-28T06:38:00.155Z,20.80
2017-07-28T06:40:29.001Z,21.20
2017-07-28T06:42:57.528Z,21.20
2017-07-28T06:45:26.747Z,22.40
2017-07-28T06:47:55.215Z,24.00
2017-07-28T06:50:24.497Z,24.40
2017-07-28T06:52:53.151Z,24.80
2017-07-28T06:55:22.193Z,23.90
2017-07-28T06:57:51.442Z,24.40
2017-07-28T07:00:20.510Z,24.40
2017-07-28T07:02:48.957Z,24.80
2017-07-28T07:05:17.815Z,25.00
2017-07-28T07:07:46.710Z,26.10
2017-07-28T07:10:16.034Z,25.50
2017-07-28T07:12:46.223Z,23.90
2017-07-28T07:15:15.111Z,23.50
2017-07-28T07:17:44.329Z,24.10
2017-07-28T07:20:13.581Z,25.00
2017-07-28T07:22:42.090Z,24.30
2017-07-28T07:25:11.323Z,23.70
2017-07-28T07:27:40.544Z,22.60
2017-07-28T07:30:09.398Z,20.90
2017-07-28T07:32:38.634Z,20.30
2017-07-28T07:35:07.499Z,20.80
2017-07-28T07:37:36.758Z,21.60
2017-07-28T07:40:05.241Z,21.70
2017-07-28T07:42:33.697Z,22.40
2017-07-28T07:45:02.203Z,22.60
2017-07-28T07:47:31.053Z,22.00
2017-07-28T07:49:59.921Z,22.30
2017-07-28T07:52:28.439Z,22.70
2017-07-28T07:54:57.369Z,22.70
2017-07-28T07:57:26.215Z,22.40
2017-07-28T07:59:55.557Z,24.10
2017-07-28T08:02:25.144Z,25.00
2017-07-28T08:04:53.606Z,25.80
2017-07-28T08:07:22.059Z,28.50
2017-07-28T08:09:50.504Z,29.70
2017-07-28T08:12:18.979Z,28.70
2017-07-28T08:14:47.435Z,28.50
2017-07-28T08:17:16.290Z,27.00
2017-07-28T08:19:44.936Z,27.60
2017-07-28T08:22:13.829Z,27.60
2017-07-28T08:24:42.319Z,28.80
2017-07-28T08:27:11.166Z,27.00
2017-07-28T08:29:39.669Z,24.70
2017-07-28T08:32:08.570Z,23.50
2017-07-28T08:34:37.474Z,23.50
2017-07-28T08:37:06.332Z,23.60
2017-07-28T08:39:34.790Z,24.30
2017-07-28T08:42:03.305Z,25.10
2017-07-28T08:44:32.541Z,26.40
2017-07-28T08:47:01.012Z,27.70
2017-07-28T08:49:30.281Z,27.20
2017-07-28T08:51:59.539Z,27.60
2017-07-28T08:54:28.381Z,27.80
2017-07-28T08:56:56.843Z,27.70
2017-07-28T08:59:26.990Z,28.30
2017-07-28T09:01:56.234Z,28.70
2017-07-28T09:04:25.838Z,27.80
2017-07-28T09:06:55.095Z,26.00
2017-07-28T09:09:24.392Z,24.30
2017-07-28T09:11:52.899Z,23.00
2017-07-28T09:14:22.479Z,22.40
2017-07-28T09:19:20.468Z,23.30
2017-07-28T09:21:49.291Z,24.80
2017-07-28T09:24:19.243Z,26.10
2017-07-28T09:26:48.650Z,28.20
2017-07-28T09:29:17.095Z,27.60
2017-07-28T09:31:46.326Z,27.70
2017-07-28T09:34:15.643Z,28.30
2017-07-28T09:36:44.130Z,27.60
2017-07-28T09:39:12.693Z,26.50
2017-07-28T09:41:41.956Z,25.70
2017-07-28T09:44:10.811Z,24.90
2017-07-28T09:46:40.809Z,25.40
2017-07-28T09:49:09.679Z,26.00
2017-07-28T09:51:39.015Z,26.60
2017-07-28T09:54:07.978Z,27.50
2017-07-28T09:56:37.203Z,28.50
2017-07-28T09:59:06.060Z,27.20
2017-07-28T10:04:05.326Z,24.60
2017-07-28T10:06:34.543Z,23.40
2017-07-28T10:11:32.142Z,22.20
2017-07-28T10:14:01.029Z,22.60
2017-07-28T10:16:30.521Z,24.40
2017-07-28T10:18:59.365Z,25.90
2017-07-28T10:21:28.955Z,27.00
2017-07-28T10:23:57.303Z,26.80
2017-07-28T10:26:28.031Z,28.20
2017-07-28T10:28:56.886Z,28.70
2017-07-28T10:33:55.668Z,27.80
2017-07-28T10:36:24.516Z,28.90
2017-07-28T10:38:53.996Z,28.80
2017-07-28T10:41:23.431Z,28.40
2017-07-28T10:43:52.279Z,27.10
2017-07-28T10:48:50.629Z,28.90
2017-07-28T10:51:19.518Z,30.40
2017-07-28T10:53:48.764Z,30.30
2017-07-28T10:56:17.596Z,28.40
2017-07-28T10:58:46.485Z,27.50
2017-07-28T11:08:43.922Z,26.90
2017-07-28T11:11:12.381Z,25.40
2017-07-28T11:13:42.730Z,28.30
2017-07-28T11:18:40.689Z,30.60
2017-07-28T11:21:10.097Z,33.40
2017-07-28T11:23:40.049Z,34.40
2017-07-28T11:26:08.909Z,33.70
2017-07-28T11:28:37.757Z,31.40
2017-07-28T11:31:07.016Z,30.90
2017-07-28T11:33:35.857Z,32.20
2017-07-28T11:38:34.559Z,31.90
2017-07-28T11:43:32.804Z,29.20
2017-07-28T11:46:01.811Z,26.80
2017-07-28T11:48:31.131Z,25.90
2017-07-28T11:50:59.589Z,25.50
2017-07-28T11:55:58.152Z,26.00
2017-07-28T12:03:27.086Z,30.40
2017-07-28T12:05:55.378Z,30.40
2017-07-28T12:08:25.003Z,29.80
2017-07-28T12:10:53.716Z,29.10
2017-07-28T12:13:24.628Z,30.00
2017-07-28T12:15:53.942Z,30.60
2017-07-28T12:18:22.399Z,33.40
2017-07-28T12:20:51.593Z,34.20
2017-07-28T12:23:20.851Z,35.00
2017-07-28T12:25:49.293Z,30.70
2017-07-28T12:28:18.185Z,30.50
2017-07-28T12:30:48.162Z,30.50
2017-07-28T12:35:47.380Z,30.30
2017-07-28T12:38:17.018Z,31.10
2017-07-28T12:43:15.055Z,28.50
2017-07-28T12:48:13.416Z,33.20
2017-07-28T12:50:41.863Z,35.30
2017-07-28T12:55:40.454Z,35.30
2017-07-28T12:58:08.917Z,36.40
2017-07-28T13:00:37.879Z,31.70
2017-07-28T13:03:12.413Z,31.80
2017-07-28T13:05:41.604Z,30.20
2017-07-28T13:08:10.875Z,28.80
2017-07-28T13:10:39.709Z,29.30
2017-07-28T13:15:38.074Z,30.00
2017-07-28T13:20:36.711Z,30.00
2017-07-28T13:23:05.547Z,31.40
2017-07-28T13:25:34.472Z,31.10
2017-07-28T13:30:32.518Z,29.10
2017-07-28T13:35:32.012Z,29.60
2017-07-28T13:38:02.172Z,31.50
2017-07-28T13:40:30.675Z,32.20
2017-07-28T13:42:59.896Z,30.30
2017-07-28T13:45:29.474Z,29.40
2017-07-28T13:47:58.760Z,29.40
2017-07-28T13:52:57.836Z,30.40
2017-07-28T13:55:27.420Z,30.80
2017-07-28T13:57:57.389Z,31.00
2017-07-28T14:00:27.352Z,31.10
2017-07-28T14:02:57.454Z,29.90
2017-07-28T14:05:27.418Z,29.90
2017-07-28T14:07:57.054Z,30.60
2017-07-28T14:15:25.749Z,27.70
2017-07-28T14:17:54.592Z,27.40
2017-07-28T14:22:52.934Z,27.90
2017-07-28T14:25:21.777Z,27.90
2017-07-28T14:32:49.218Z,28.90
2017-07-28T14:35:19.176Z,28.90
2017-07-28T14:40:17.218Z,28.40
2017-07-28T14:42:47.398Z,28.70
2017-07-28T14:45:17.160Z,30.10
2017-07-28T14:50:15.062Z,28.50
2017-07-28T14:52:44.452Z,29.90
2017-07-28T14:57:43.552Z,31.40
2017-07-28T15:02:42.316Z,28.80
2017-07-28T15:07:42.141Z,27.80
2017-07-28T15:10:11.223Z,26.30
2017-07-28T15:12:39.874Z,26.80
2017-07-28T15:15:08.312Z,28.40
2017-07-28T15:17:37.031Z,30.60
2017-07-28T15:20:05.488Z,31.20
2017-07-28T15:22:34.688Z,30.90
2017-07-28T15:25:03.169Z,31.30
2017-07-28T15:27:31.839Z,31.00
2017-07-28T15:30:01.067Z,30.10
2017-07-28T15:32:30.302Z,30.20
2017-07-28T15:34:59.142Z,30.20
2017-07-28T15:37:28.716Z,30.40
2017-07-28T15:39:57.641Z,30.30
2017-07-28T15:42:26.866Z,30.50
2017-07-28T15:44:56.065Z,30.40
2017-07-28T15:47:26.079Z,28.80
2017-07-28T15:49:54.936Z,28.10
2017-07-28T15:52:23.384Z,28.90
2017-07-28T15:54:51.858Z,29.20
2017-07-28T15:57:20.693Z,29.40
2017-07-28T15:59:50.644Z,29.20
2017-07-28T16:02:19.530Z,29.30
2017-07-28T16:04:48.007Z,29.80
2017-07-28T16:07:17.641Z,29.10
2017-07-28T16:09:46.126Z,28.80
2017-07-28T16:14:46.903Z,29.10
2017-07-28T16:17:15.421Z,28.80
2017-07-28T16:19:43.879Z,28.50
2017-07-28T16:22:12.376Z,27.90
2017-07-28T16:24:40.844Z,28.20
2017-07-28T16:27:09.694Z,28.50
2017-07-28T16:29:38.204Z,28.70
2017-07-28T16:32:07.434Z,27.90
2017-07-28T16:34:36.672Z,27.90
2017-07-28T16:37:05.924Z,27.90
2017-07-28T16:39:34.359Z,27.70
2017-07-28T16:44:33.785Z,27.90
2017-07-28T16:47:03.759Z,27.40
2017-07-28T16:49:32.199Z,27.70
2017-07-28T16:52:00.692Z,27.50
2017-07-28T16:54:29.167Z,27.30
2017-07-28T16:56:57.996Z,26.70
2017-07-28T16:59:27.628Z,26.40
2017-07-28T17:01:57.074Z,26.20
2017-07-28T17:04:25.513Z,25.70
2017-07-28T17:06:54.383Z,25.60
2017-07-28T17:09:23.402Z,25.80
2017-07-28T17:11:58.910Z,25.80
2017-07-28T17:14:27.755Z,25.90
2017-07-28T17:16:56.976Z,25.70
2017-07-28T17:19:26.212Z,25.80
2017-07-28T17:21:54.680Z,25.50
2017-07-28T17:24:25.246Z,25.20
2017-07-28T17:26:54.327Z,25.10
2017-07-28T17:29:23.318Z,25.20
2017-07-28T17:31:52.157Z,25.30
2017-07-28T17:34:21.247Z,25.20
2017-07-28T17:36:49.675Z,24.90
2017-07-28T17:39:18.891Z,24.40
2017-07-28T17:44:17.983Z,23.80
2017-07-28T17:46:48.003Z,23.50
2017-07-28T17:49:17.973Z,23.50
2017-07-28T17:51:47.941Z,23.20
2017-07-28T17:54:17.893Z,22.70
2017-07-28T17:56:47.868Z,22.40
2017-07-28T18:04:16.126Z,21.70
2017-07-28T18:06:44.570Z,21.50
2017-07-28T18:09:13.462Z,21.40
2017-07-28T18:11:43.413Z,21.30
2017-07-28T18:14:11.841Z,21.20
2017-07-28T18:16:40.296Z,21.10
2017-07-28T18:19:10.258Z,20.80
2017-07-28T18:21:38.754Z,20.60
2017-07-28T18:24:07.195Z,20.40
2017-07-28T18:29:05.575Z,19.80
2017-07-28T18:31:35.726Z,19.50
2017-07-28T18:34:04.930Z,19.30
2017-07-28T18:36:34.181Z,19.00
2017-07-28T18:39:03.465Z,18.60
2017-07-28T18:41:33.738Z,18.50
2017-07-28T18:44:02.580Z,18.20
2017-07-28T18:46:32.522Z,18.10
2017-07-28T18:49:01.364Z,18.00
2017-07-28T18:53:59.805Z,17.70
2017-07-28T18:56:28.882Z,17.60
2017-07-28T18:58:57.728Z,17.50
2017-07-28T19:01:27.727Z,17.40
2017-07-28T19:03:56.201Z,17.30
2017-07-28T19:06:26.165Z,17.50
2017-07-28T19:08:55.401Z,17.60
2017-07-28T19:11:24.299Z,17.80
2017-07-28T19:13:53.913Z,17.90
2017-07-28T19:18:52.602Z,18.00
2017-07-28T19:21:21.803Z,17.90
2017-07-28T19:23:50.311Z,17.90
2017-07-28T19:26:19.147Z,17.90
2017-07-28T19:36:16.437Z,17.80
2017-07-28T19:38:45.949Z,17.80
2017-07-28T19:41:14.430Z,17.70
2017-07-28T19:43:44.503Z,17.70
2017-07-28T19:46:14.591Z,17.70
2017-07-28T19:48:44.525Z,17.70
2017-07-28T19:51:13.036Z,17.60
2017-07-28T19:53:41.876Z,17.40
2017-07-28T19:56:10.703Z,17.10
2017-07-28T20:03:38.639Z,16.90
2017-07-28T20:06:07.480Z,16.80
2017-07-28T20:08:37.113Z,16.80
2017-07-28T20:13:35.816Z,16.60
2017-07-28T20:18:34.328Z,16.70
2017-07-28T20:21:02.773Z,16.70
2017-07-28T20:23:31.663Z,16.90
2017-07-28T20:26:00.873Z,16.90
2017-07-28T20:28:30.827Z,16.90
2017-07-28T20:33:28.787Z,16.70
2017-07-28T20:35:57.634Z,16.50
2017-07-28T20:38:26.595Z,16.40
2017-07-28T20:40:55.491Z,16.40
2017-07-28T20:43:24.375Z,16.30
2017-07-28T20:45:54.531Z,16.30
2017-07-28T20:50:52.780Z,16.60
2017-07-28T20:53:22.770Z,16.70
2017-07-28T20:55:52.403Z,16.80
2017-07-28T20:58:20.862Z,16.90
2017-07-28T21:00:49.711Z,17.00
2017-07-28T21:03:18.736Z,16.90
2017-07-28T21:08:17.852Z,16.80
2017-07-28T21:10:47.084Z,16.70
2017-07-28T21:13:17.075Z,16.80
2017-07-28T21:15:46.312Z,16.80
2017-07-28T21:18:14.769Z,16.70
2017-07-28T21:20:44.391Z,16.70
2017-07-28T21:23:14.337Z,16.50
2017-07-28T21:25:43.583Z,16.50
2017-07-28T21:28:12.061Z,16.40
2017-07-28T21:30:41.278Z,16.40
2017-07-28T21:33:10.551Z,16.40
2017-07-28T21:35:40.494Z,16.30
2017-07-28T21:38:08.959Z,16.40
2017-07-28T21:40:37.452Z,16.50
2017-07-28T21:43:07.392Z,16.40
2017-07-28T21:48:06.839Z,16.60
2017-07-28T21:53:04.847Z,16.60
2017-07-28T21:55:34.787Z,16.70
2017-07-28T22:00:32.881Z,16.70
2017-07-28T22:03:02.089Z,16.70
2017-07-28T22:05:31.298Z,16.70
2017-07-28T22:07:59.066Z,16.80
2017-07-28T22:10:27.904Z,16.80
2017-07-28T22:12:57.525Z,16.70
2017-07-28T22:15:27.299Z,16.70
2017-07-28T22:17:56.184Z,16.70
2017-07-28T22:20:25.037Z,16.60
2017-07-28T22:22:53.512Z,16.60
2017-07-28T22:25:23.092Z,16.70
2017-07-28T22:32:51.272Z,16.50
2017-07-28T22:35:19.746Z,16.50
2017-07-28T22:37:49.366Z,16.40
2017-07-28T22:40:19.356Z,16.30
2017-07-28T22:42:48.952Z,16.30
2017-07-28T22:47:47.025Z,16.30
2017-07-28T22:50:16.241Z,16.30
2017-07-28T22:52:44.718Z,16.30
2017-07-28T22:55:14.351Z,16.30
2017-07-28T22:57:42.805Z,16.20
2017-07-28T23:00:12.792Z,16.20
2017-07-28T23:05:10.897Z,16.10
2017-07-28T23:07:40.686Z,16.00
2017-07-28T23:10:10.312Z,16.00
2017-07-28T23:12:39.147Z,16.00
2017-07-28T23:15:07.642Z,15.90
2017-07-28T23:17:37.243Z,15.90
2017-07-28T23:20:06.675Z,15.90
2017-07-28T23:22:35.542Z,15.80
2017-07-28T23:25:04.464Z,15.80
2017-07-28T23:30:03.242Z,15.70
2017-07-28T23:37:31.389Z,15.40
2017-07-28T23:40:00.595Z,15.30
2017-07-28T23:42:29.951Z,15.30
2017-07-28T23:44:59.486Z,15.20
2017-07-28T23:47:28.318Z,15.00
2017-07-28T23:49:57.623Z,14.90
2017-07-28T23:52:26.823Z,14.70
2017-07-28T23:54:55.660Z,14.70
2017-07-28T23:59:55.023Z,14.50
